createdAt,value
2023-05-05T00:02:10.867Z,3.50
2023-05-05T00:05:27.776Z,3.50
2023-05-05T00:08:59.769Z,3.50
2023-05-05T00:12:15.795Z,2.80
2023-05-05T00:15:35.760Z,2.40
2023-05-05T00:19:12.422Z,2.40
2023-05-05T00:22:45.812Z,1.10
2023-05-05T00:26:25.829Z,1.30
2023-05-05T00:29:29.120Z,1.50
2023-05-05T00:31:57.330Z,1.70
2023-05-05T00:34:25.316Z,1.60
2023-05-05T00:37:21.815Z,1.60
2023-05-05T00:40:56.164Z,1.60
2023-05-05T00:44:38.839Z,1.30
2023-05-05T00:48:23.808Z,1.00
2023-05-05T00:52:01.815Z,1.00
2023-05-05T00:55:33.788Z,1.10
2023-05-05T01:02:37.820Z,1.10
2023-05-05T01:06:10.158Z,1.60
2023-05-05T01:09:41.817Z,1.80
2023-05-05T01:13:16.827Z,1.80
2023-05-05T01:16:46.451Z,1.80
2023-05-05T01:20:03.639Z,1.60
2023-05-05T01:23:37.774Z,0.70
2023-05-05T01:27:12.801Z,1.60
2023-05-05T01:30:07.384Z,1.60
2023-05-05T01:33:34.801Z,2.60
2023-05-05T01:36:48.785Z,2.20
2023-05-05T01:40:18.748Z,1.20
2023-05-05T01:43:43.957Z,2.10
2023-05-05T01:47:11.790Z,1.50
2023-05-05T01:50:48.717Z,0.90
2023-05-05T01:54:25.086Z,0.90
2023-05-05T01:57:43.748Z,2.50
2023-05-05T02:01:18.821Z,3.70
2023-05-05T02:04:37.788Z,3.10
2023-05-05T02:07:52.734Z,4.90
2023-05-05T02:11:16.814Z,4.80
2023-05-05T02:14:33.810Z,4.90
2023-05-05T02:17:42.876Z,5.00
2023-05-05T02:21:03.732Z,5.80
2023-05-05T02:24:20.805Z,7.00
2023-05-05T02:27:26.778Z,4.10
2023-05-05T02:30:53.797Z,5.10
2023-05-05T02:34:23.814Z,4.60
2023-05-05T02:38:05.607Z,3.70
2023-05-05T02:41:34.821Z,2.70
2023-05-05T02:45:18.668Z,3.00
2023-05-05T02:48:50.825Z,2.40
2023-05-05T02:52:20.764Z,1.30
2023-05-05T02:56:12.819Z,1.80
2023-05-05T02:59:29.799Z,1.30
2023-05-05T03:02:58.836Z,1.70
2023-05-05T03:06:38.827Z,1.70
2023-05-05T03:10:28.841Z,1.90
2023-05-05T03:14:35.782Z,1.60
2023-05-05T03:18:22.820Z,1.70
2023-05-05T03:22:20.818Z,2.00
2023-05-05T03:25:45.771Z,1.90
2023-05-05T03:29:39.798Z,2.10
2023-05-05T03:33:20.822Z,2.60
2023-05-05T03:37:12.827Z,5.10
2023-05-05T03:41:03.781Z,15.40
2023-05-05T03:48:09.919Z,10.80
2023-05-05T03:50:39.357Z,11.30
2023-05-05T03:53:08.524Z,9.80
2023-05-05T03:55:36.940Z,7.90
2023-05-05T03:58:05.130Z,12.80
2023-05-05T04:00:33.572Z,9.70
2023-05-05T04:03:01.950Z,7.00
2023-05-05T04:05:31.034Z,6.80
2023-05-05T04:07:59.151Z,10.00
2023-05-05T04:10:27.196Z,9.60
2023-05-05T04:12:55.821Z,6.00
2023-05-05T04:15:23.792Z,6.40
2023-05-05T04:17:52.343Z,6.70
2023-05-05T04:20:20.577Z,6.20
2023-05-05T04:22:49.851Z,5.70
2023-05-05T04:25:19.982Z,5.20
2023-05-05T04:27:49.629Z,5.80
2023-05-05T04:30:18.702Z,6.00
2023-05-05T04:32:47.041Z,6.40
2023-05-05T04:35:15.780Z,5.10
2023-05-05T04:37:44.133Z,6.50
2023-05-05T04:40:12.557Z,5.90
2023-05-05T04:42:41.499Z,7.90
2023-05-05T04:45:10.121Z,11.50
2023-05-05T04:47:39.850Z,10.10
2023-05-05T04:50:08.997Z,6.30
2023-05-05T04:52:39.767Z,5.90
2023-05-05T04:55:10.592Z,6.30
2023-05-05T04:58:34.815Z,5.80
2023-05-05T05:02:26.070Z,5.80
2023-05-05T05:06:04.817Z,6.00
2023-05-05T05:10:14.745Z,5.70
2023-05-05T05:12:47.972Z,6.10
2023-05-05T05:15:15.974Z,5.30
2023-05-05T05:17:44.088Z,5.60
2023-05-05T05:20:14.525Z,5.00
2023-05-05T05:22:42.663Z,5.40
2023-05-05T05:25:14.288Z,5.40
2023-05-05T05:27:42.578Z,4.90
2023-05-05T05:30:14.251Z,5.50
2023-05-05T05:32:42.567Z,5.30
2023-05-05T05:35:10.981Z,5.30
2023-05-05T05:37:39.271Z,5.00
2023-05-05T05:40:11.028Z,4.70
2023-05-05T05:42:40.429Z,4.30
2023-05-05T05:45:29.900Z,5.60
2023-05-05T05:48:01.244Z,5.50
2023-05-05T05:50:50.349Z,5.40
2023-05-05T05:53:19.205Z,5.30
2023-05-05T05:55:47.848Z,5.10
2023-05-05T05:58:17.128Z,6.30
2023-05-05T06:00:49.354Z,4.90
2023-05-05T06:03:17.871Z,4.40
2023-05-05T06:06:24.713Z,3.80
2023-05-05T06:09:28.235Z,5.90
2023-05-05T06:13:36.247Z,5.00
2023-05-05T06:15:16.808Z,5.30
2023-05-05T06:18:57.948Z,6.00
2023-05-05T06:22:38.258Z,6.80
2023-05-05T06:30:06.459Z,8.50
2023-05-05T06:38:13.194Z,7.10
2023-05-05T06:40:25.938Z,7.40
2023-05-05T06:41:24.036Z,7.60
2023-05-05T06:44:38.881Z,7.80
2023-05-05T07:01:12.844Z,6.20
2023-05-05T07:11:22.427Z,4.20
2023-05-05T07:13:06.430Z,4.70
2023-05-05T07:13:57.513Z,3.90
2023-05-05T07:17:08.358Z,4.60
2023-05-05T07:20:18.929Z,4.80
2023-05-05T07:26:50.744Z,4.60
2023-05-05T07:31:48.572Z,4.10
2023-05-05T07:42:32.028Z,3.30
2023-05-05T07:49:22.167Z,5.00
2023-05-05T07:52:18.371Z,4.50
2023-05-05T07:55:28.723Z,4.90
2023-05-05T07:58:57.588Z,4.70
2023-05-05T08:06:40.400Z,3.70
2023-05-05T08:10:43.656Z,4.40
2023-05-05T08:24:54.564Z,2.90
2023-05-05T08:48:06.861Z,1.90
2023-05-05T08:50:41.979Z,1.50
2023-05-05T08:53:12.176Z,1.80
2023-05-05T08:55:56.102Z,1.40
2023-05-05T08:58:27.034Z,1.50
2023-05-05T09:01:01.609Z,1.50
2023-05-05T09:03:34.907Z,1.20
2023-05-05T09:06:05.296Z,1.20
2023-05-05T09:08:35.342Z,1.40
2023-05-05T09:11:08.102Z,1.30
2023-05-05T09:13:36.443Z,1.30
2023-05-05T09:16:05.447Z,1.10
2023-05-05T09:18:36.696Z,1.20
2023-05-05T09:21:20.659Z,1.40
2023-05-05T09:24:09.258Z,1.30
2023-05-05T09:26:47.222Z,1.00
2023-05-05T09:29:26.282Z,1.40
2023-05-05T09:32:10.493Z,1.50
2023-05-05T09:34:43.787Z,1.40
2023-05-05T09:37:31.691Z,1.60
2023-05-05T09:40:09.352Z,1.20
2023-05-05T09:42:41.339Z,1.10
2023-05-05T09:45:40.753Z,1.40
2023-05-05T09:48:40.559Z,1.90
2023-05-05T09:51:33.617Z,1.60
2023-05-05T09:54:22.500Z,2.00
2023-05-05T09:57:43.058Z,1.10
2023-05-05T10:00:44.330Z,1.40
2023-05-05T10:03:19.486Z,1.30
2023-05-05T10:06:44.746Z,1.50
2023-05-05T10:09:26.240Z,1.80
2023-05-05T10:15:47.308Z,2.00
2023-05-05T10:18:25.126Z,1.30
2023-05-05T10:21:06.312Z,1.30
2023-05-05T10:23:49.094Z,1.60
2023-05-05T10:26:20.285Z,2.00
2023-05-05T10:28:56.329Z,1.30
2023-05-05T10:31:41.348Z,1.40
2023-05-05T10:34:27.134Z,1.90
2023-05-05T10:36:57.654Z,1.60
2023-05-05T10:39:43.896Z,1.60
2023-05-05T10:42:15.163Z,1.50
2023-05-05T10:44:44.614Z,1.70
2023-05-05T10:47:13.420Z,1.60
2023-05-05T10:49:53.442Z,1.30
2023-05-05T10:52:41.472Z,1.60
2023-05-05T10:55:22.187Z,1.80
2023-05-05T10:59:00.259Z,2.00
2023-05-05T11:02:42.837Z,1.70
2023-05-05T11:05:29.782Z,1.60
2023-05-05T11:08:28.730Z,1.80
2023-05-05T11:11:00.456Z,1.80
2023-05-05T11:13:29.429Z,1.70
2023-05-05T11:15:58.886Z,1.50
2023-05-05T11:18:35.945Z,1.70
2023-05-05T11:21:15.281Z,1.80
2023-05-05T11:23:48.194Z,1.80
2023-05-05T11:26:18.698Z,1.40
2023-05-05T11:29:03.172Z,1.60
2023-05-05T11:31:34.763Z,1.50
2023-05-05T11:34:31.338Z,1.60
2023-05-05T11:37:04.952Z,1.40
2023-05-05T11:39:47.310Z,1.30
2023-05-05T11:42:26.153Z,1.70
2023-05-05T11:45:19.911Z,1.60
2023-05-05T11:47:48.680Z,1.70
2023-05-05T11:50:24.653Z,1.70
2023-05-05T11:52:55.017Z,1.20
2023-05-05T11:55:25.729Z,1.60
2023-05-05T11:57:54.313Z,1.80
2023-05-05T12:00:58.666Z,1.40
2023-05-05T12:40:58.364Z,1.60
2023-05-05T12:44:00.178Z,1.80
2023-05-05T12:46:48.079Z,1.70
2023-05-05T12:49:54.347Z,1.50
2023-05-05T12:53:12.339Z,1.80
2023-05-05T12:56:44.667Z,2.30
2023-05-05T13:04:59.844Z,1.90
2023-05-05T13:08:19.729Z,1.80
2023-05-05T13:11:01.084Z,1.40
2023-05-05T13:13:44.389Z,1.80
2023-05-05T13:16:19.061Z,1.60
2023-05-05T13:19:09.308Z,1.90
2023-05-05T13:21:44.467Z,1.60
2023-05-05T13:24:49.543Z,1.50
2023-05-05T13:27:29.393Z,1.20
2023-05-05T13:29:59.584Z,1.30
2023-05-05T13:32:27.882Z,1.70
2023-05-05T13:34:59.173Z,1.00
2023-05-05T13:37:31.222Z,1.60
2023-05-05T13:40:01.717Z,1.70
2023-05-05T13:42:30.561Z,1.70
2023-05-05T13:44:58.766Z,1.50
2023-05-05T13:47:34.858Z,1.40
2023-05-05T13:50:05.408Z,2.10
2023-05-05T13:52:42.064Z,1.60
2023-05-05T13:55:17.529Z,1.40
2023-05-05T13:57:52.910Z,1.40
2023-05-05T14:00:39.754Z,1.20
2023-05-05T14:05:44.100Z,1.60
2023-05-05T14:08:13.346Z,1.20
2023-05-05T14:10:41.818Z,1.10
2023-05-05T14:13:12.644Z,0.90
2023-05-05T14:15:54.569Z,1.20
2023-05-05T14:18:22.920Z,1.40
2023-05-05T14:20:58.556Z,1.10
2023-05-05T14:23:28.353Z,1.20
2023-05-05T14:25:57.851Z,1.10
2023-05-05T14:28:29.595Z,1.70
2023-05-05T14:31:06.537Z,1.40
2023-05-05T14:37:18.072Z,1.20
2023-05-05T14:41:02.003Z,1.20
2023-05-05T14:44:51.459Z,1.40
2023-05-05T14:59:09.998Z,1.20
2023-05-05T15:03:09.032Z,2.00
2023-05-05T15:13:11.130Z,1.70
2023-05-05T15:17:05.719Z,1.10
2023-05-05T15:23:20.823Z,1.40
2023-05-05T15:26:28.356Z,1.10
2023-05-05T15:29:18.727Z,1.10
2023-05-05T15:31:57.837Z,1.10
2023-05-05T15:34:38.724Z,1.10
2023-05-05T15:37:23.615Z,1.30
2023-05-05T15:40:08.183Z,1.10
2023-05-05T15:42:51.281Z,1.80
2023-05-05T15:46:25.926Z,2.00
2023-05-05T15:49:17.275Z,1.20
2023-05-05T15:52:10.495Z,1.10
2023-05-05T15:54:55.375Z,1.30
2023-05-05T15:58:19.062Z,1.00
2023-05-05T16:01:23.210Z,1.10
2023-05-05T16:04:35.101Z,1.20
2023-05-05T16:07:37.521Z,1.20
2023-05-05T16:10:50.420Z,1.30
2023-05-05T16:14:27.712Z,1.30
2023-05-05T16:17:05.862Z,1.00
2023-05-05T16:19:37.249Z,0.80
2023-05-05T16:22:05.621Z,1.20
2023-05-05T16:24:33.506Z,1.10
2023-05-05T16:27:02.550Z,1.20
2023-05-05T16:29:30.528Z,1.10
2023-05-05T16:31:58.507Z,1.00
2023-05-05T16:34:26.665Z,1.20
2023-05-05T16:36:54.802Z,1.30
2023-05-05T16:39:22.996Z,1.20
2023-05-05T16:41:50.875Z,1.50
2023-05-05T16:44:18.833Z,1.20
2023-05-05T16:46:46.927Z,1.10
2023-05-05T16:49:25.213Z,1.30
2023-05-05T16:51:53.715Z,1.10
2023-05-05T16:54:22.384Z,1.50
2023-05-05T16:56:52.458Z,1.20
2023-05-05T16:59:20.458Z,1.50
2023-05-05T17:01:48.732Z,1.20
2023-05-05T17:04:17.120Z,1.40
2023-05-05T17:06:45.039Z,1.30
2023-05-05T17:09:12.842Z,1.60
2023-05-05T17:11:42.408Z,1.70
2023-05-05T17:14:10.456Z,1.50
2023-05-05T17:16:38.897Z,1.50
2023-05-05T17:19:14.455Z,1.40
2023-05-05T17:21:46.774Z,1.30
2023-05-05T17:24:15.217Z,1.30
2023-05-05T17:26:44.106Z,1.70
2023-05-05T17:29:13.173Z,1.80
2023-05-05T17:31:42.058Z,1.50
2023-05-05T17:34:13.576Z,1.50
2023-05-05T17:36:42.480Z,1.30
2023-05-05T17:39:11.443Z,1.40
2023-05-05T17:41:42.170Z,1.70
2023-05-05T17:44:11.316Z,1.90
2023-05-05T17:46:39.338Z,1.60
2023-05-05T17:49:10.282Z,1.90
2023-05-05T17:51:58.789Z,1.60
2023-05-05T17:54:37.098Z,2.10
2023-05-05T17:57:05.108Z,2.20
2023-05-05T17:59:53.678Z,2.10
2023-05-05T18:02:24.086Z,2.20
2023-05-05T18:04:52.833Z,2.20
2023-05-05T18:07:21.845Z,2.10
2023-05-05T18:09:49.801Z,2.10
2023-05-05T18:12:19.457Z,2.20
2023-05-05T18:14:54.917Z,2.10
2023-05-05T18:17:24.304Z,2.40
2023-05-05T18:19:54.068Z,1.80
2023-05-05T18:22:30.568Z,3.10
2023-05-05T18:27:29.077Z,2.50
2023-05-05T18:29:56.949Z,3.40
2023-05-05T18:32:24.990Z,3.00
2023-05-05T18:34:52.978Z,2.30
2023-05-05T18:37:20.954Z,2.20
2023-05-05T18:39:49.182Z,1.90
2023-05-05T18:42:17.049Z,1.90
2023-05-05T18:44:45.049Z,2.00
2023-05-05T18:47:13.260Z,2.40
2023-05-05T18:49:41.909Z,2.00
2023-05-05T18:52:09.980Z,2.90
2023-05-05T18:54:38.117Z,2.70
2023-05-05T18:57:06.753Z,2.60
2023-05-05T18:59:34.735Z,2.00
2023-05-05T19:02:02.870Z,2.90
2023-05-05T19:04:32.168Z,2.90
2023-05-05T19:07:00.233Z,3.10
2023-05-05T19:09:28.330Z,2.50
2023-05-05T19:11:56.269Z,2.20
2023-05-05T19:14:28.193Z,2.10
2023-05-05T19:16:58.899Z,2.20
2023-05-05T19:19:27.239Z,2.90
2023-05-05T19:21:55.192Z,2.50
2023-05-05T19:24:23.039Z,4.40
2023-05-05T19:26:52.218Z,24.90
2023-05-05T19:29:20.329Z,7.80
2023-05-05T19:31:48.596Z,7.50
2023-05-05T19:34:17.521Z,27.60
2023-05-05T19:36:45.551Z,22.80
2023-05-05T19:39:15.315Z,12.20
2023-05-05T19:41:44.165Z,9.70
2023-05-05T19:44:12.054Z,6.40
2023-05-05T19:46:40.352Z,7.30
2023-05-05T19:49:08.360Z,4.60
2023-05-05T19:51:36.701Z,2.70
2023-05-05T19:54:06.061Z,2.60
2023-05-05T19:56:34.171Z,2.70
2023-05-05T19:59:05.969Z,2.00
2023-05-05T20:01:35.665Z,1.90
2023-05-05T20:04:03.937Z,2.00
2023-05-05T20:06:32.844Z,1.60
2023-05-05T20:09:01.038Z,1.70
2023-05-05T20:11:30.068Z,1.60
2023-05-05T20:14:31.144Z,1.80
2023-05-05T20:21:23.205Z,1.70
2023-05-05T20:25:14.901Z,2.20
2023-05-05T20:28:48.349Z,2.40
2023-05-05T20:32:24.107Z,2.00
2023-05-05T20:35:54.401Z,21.20
2023-05-05T20:43:05.041Z,7.30
2023-05-05T20:46:49.158Z,5.20
2023-05-05T21:00:17.868Z,2.90
2023-05-05T21:07:32.203Z,3.30
2023-05-05T21:14:43.452Z,2.20
2023-05-05T21:18:19.977Z,2.30
2023-05-05T21:22:10.302Z,3.00
2023-05-05T21:25:44.384Z,3.20
2023-05-05T21:29:48.371Z,3.30
2023-05-05T21:37:25.944Z,3.10
2023-05-05T21:41:26.793Z,3.10
2023-05-05T21:48:22.801Z,2.80
2023-05-05T21:51:45.991Z,2.20
2023-05-05T21:58:42.364Z,3.60
2023-05-05T22:02:10.965Z,3.60
2023-05-05T22:05:55.454Z,3.20
2023-05-05T22:13:34.283Z,2.80
2023-05-05T22:20:28.240Z,2.70
2023-05-05T22:24:12.008Z,2.80
2023-05-05T22:27:56.120Z,3.20
2023-05-05T22:35:17.587Z,3.00
2023-05-05T22:39:22.513Z,3.10
2023-05-05T22:46:22.152Z,2.50
2023-05-05T22:53:16.533Z,2.40
2023-05-05T22:57:00.028Z,2.60
2023-05-05T23:00:37.117Z,2.70
2023-05-05T23:04:11.015Z,3.40
2023-05-05T23:10:55.070Z,3.60
2023-05-05T23:14:42.115Z,3.60
2023-05-05T23:18:14.100Z,4.00
2023-05-05T23:21:53.401Z,4.20
2023-05-05T23:25:25.951Z,3.80
2023-05-05T23:29:26.635Z,3.70
2023-05-05T23:33:35.795Z,4.40
2023-05-05T23:37:13.355Z,4.70
2023-05-05T23:48:02.155Z,4.00
2023-05-05T23:51:37.004Z,4.00
2023-05-05T23:55:16.960Z,3.90
